• Join FlightAware (Why Join?)
  • Login
  • US Flag 
02:27PM EDT


 

Airport Tracker/Info


-or-


 

Live Flight TrackerFlight Track Log ✈ UAL4093 ✈ 16-Apr-2013 ✈ KCVG - KEWR

Flight Track Log - Related Links

Times and Time Zones

All times are in EDT time to prevent confusion due to time zone crossing. See the UAL4093 flight status page for this flight to view local times or setup timezone preferences in your user account.

Time Position Orientation Groundspeed Altitude Reporting Facility
EDT Latitude Longitude Course Direction KTS MPH feet Rate Location/Type
05:00PM 39.0500 -84.6833 75° East 161 185 1,200  Level Cincinnati TRACON
05:01PM 39.0500 -84.7333 270° West 163 188 3,100 2,160 Climbing Cincinnati TRACON
05:02PM 39.0500 -84.8167 270° West 244 281 5,400 1,920 Climbing Cincinnati TRACON
05:03PM 39.0167 -84.8833 237° Southwest 226 260 7,000 1,080 Climbing Cincinnati TRACON
05:03PM 39.0022 -84.8864 189° South 220 253 7,000  Level Indianapolis Center
05:04PM 38.9500 -84.8667 164° South 265 305 7,000  Level Cincinnati TRACON
05:05PM 38.9167 -84.7833 117° Southeast 271 312 7,000  Level Cincinnati TRACON
05:06PM 39.2191 -83.8253 75° East  Level Estimated
05:06PM 38.9333 -84.6833 78° East 276 318 7,100  Level Cincinnati TRACON
05:07PM 38.9333 -84.6000 90° East 311 358 8,400 2,160 Climbing Cincinnati TRACON
05:08PM 38.9667 -84.4667 72° East 330 380 11,500 1,620 Climbing Cincinnati TRACON
05:10PM 39.0108 -84.2900 72° East 370 426 12,900 600 Climbing Indianapolis Center
05:11PM 39.0419 -84.1422 75° East 426 490 13,000 1,020 Climbing Indianapolis Center
05:12PM 39.0728 -83.9956 75° East 424 488 15,100 1,680 Climbing Indianapolis Center
05:13PM 39.1072 -83.8536 73° East 415 478 16,500 1,200 Climbing Indianapolis Center
05:14PM 39.1425 -83.7033 73° East 433 498 17,600 1,020 Climbing Indianapolis Center
05:15PM 39.1769 -83.5481 74° East 447 514 18,600 1,020 Climbing Indianapolis Center
05:16PM 39.2106 -83.3917 74° East 451 519 19,800 1,080 Climbing Indianapolis Center
05:17PM 39.2442 -83.2322 75° East 458 527 20,900 1,200 Climbing Indianapolis Center
05:18PM 39.2833 -83.0450 75° East 462 532 22,300 1,260 Climbing Indianapolis Center
05:19PM 39.3278 -82.8872 70° East 474 545 23,500 1,260 Climbing Indianapolis Center
05:20PM 39.3953 -82.7489 58° Northeast 455 524 24,900 1,380 Climbing Indianapolis Center
05:21PM 39.4611 -82.6106 58° Northeast 451 519 26,400 1,380 Climbing Indianapolis Center
05:22PM 39.5256 -82.4756 58° Northeast 442 509 27,800 1,260 Climbing Indianapolis Center
05:23PM 39.5883 -82.3417 59° Northeast 434 499 29,000 1,020 Climbing Indianapolis Center
05:24PM 39.6528 -82.2053 58° Northeast 437 503 29,900 480 Climbing Indianapolis Center
05:25PM 39.7206 -82.0628 58° Northeast 457 526 30,000  Climbing Indianapolis Center
05:26PM 39.7900 -81.9122 59° Northeast 478 550 30,000  Level Indianapolis Center
05:27PM 39.8756 -81.7289 59° Northeast 502 578 30,000  Level Indianapolis Center
05:28PM 39.9481 -81.5692 59° Northeast 507 583 30,000 300 Level Indianapolis Center
05:29PM 40.0119 -81.4306 59° Northeast 505 581 30,700 720 Climbing Indianapolis Center
05:30PM 40.0944 -81.2494 59° Northeast 497 572 31,500 720 Climbing Indianapolis Center
05:31PM 40.1661 -81.0992 58° Northeast 503 579 32,300 780 Climbing Cleveland Center
05:32PM 40.2333 -80.9475 60° Northeast 498 573 33,200 900 Climbing Cleveland Center
05:33PM 40.3131 -80.8008 54° Northeast 492 566 34,100 900 Climbing Cleveland Center
05:34PM 40.3964 -80.6675 51° Northeast 480 552 35,000 420 Climbing Cleveland Center
05:35PM 40.4819 -80.5286 51° Northeast 480 552 35,000  Level Cleveland Center
05:36PM 40.5653 -80.3864 52° Northeast 486 559 35,000  Level Cleveland Center
05:37PM 40.6294 -80.2303 62° Northeast 486 559 35,000  Level Cleveland Center
05:38PM 40.6936 -80.0683 62° Northeast 486 559 35,000  Level Cleveland Center
05:39PM 40.7675 -79.8894 61° Northeast 495 570 35,000  Level Cleveland Center
05:40PM 40.8311 -79.7242 63° Northeast 495 570 35,000  Level Cleveland Center
05:41PM 40.8672 -79.5453 75° East 495 570 35,000  Level Cleveland Center
05:42PM 40.9008 -79.3633 76° East 495 570 35,000  Level Cleveland Center
05:43PM 40.9342 -79.1869 76° East 495 570 35,000  Level Cleveland Center
05:44PM 40.9653 -79.0047 77° East 495 570 35,000 -180 Level Cleveland Center
05:45PM 40.9981 -78.8222 77° East 495 570 34,700 -600 Descending Cleveland Center
05:46PM 41.0306 -78.6425 76° East 500 575 33,800 -900 Descending Cleveland Center
05:47PM 41.0606 -78.4572 78° East 500 575 33,000 -480 Descending Cleveland Center
05:49PM 41.1100 -78.1631 77° East 514 592 32,500 -540 Descending New York Center
05:50PM 41.1403 -77.9761 78° East 514 592 31,600 -780 Descending New York Center
05:51PM 41.1719 -77.7947 77° East 520 598 31,000 -360 Descending New York Center
05:52PM 41.2033 -77.6131 77° East 520 598 31,000  Level New York Center
05:53PM 41.2325 -77.4283 78° East 515 593 31,000  Level New York Center
05:54PM 41.2644 -77.2300 78° East 515 593 31,000 -120 Level New York Center
05:55PM 41.2953 -77.0450 77° East 510 587 30,800 -1,080 Descending New York Center
05:56PM 41.3233 -76.8625 78° East 510 587 28,900 -2,040 Descending New York Center
05:57PM 41.3119 -76.6792 95° East 491 565 26,900 -2,160 Descending New York Center
05:58PM 41.2622 -76.5008 110° East 491 565 24,700 -2,340 Descending New York Center
05:59PM 41.2142 -76.3286 110° East 497 572 22,300 -2,580 Descending New York Center
06:00PM 41.1756 -76.1767 109° East 498 573 19,600 -2,160 Descending New York Center
06:01PM 41.1344 -76.0244 110° East 460 529 18,000 -2,040 Descending New York Center
06:02PM 41.0897 -75.8558 109° East 439 505 15,500 -2,340 Descending New York Center
06:03PM 41.0481 -75.7069 110° East 429 494 13,300 -1,320 Descending New York Center
06:04PM 41.0139 -75.5750 109° East 424 488 13,000 -780 Descending New York Center
06:05PM 40.9717 -75.4347 112° Southeast 415 478 11,800 -1,080 Descending New York Center
06:06PM 40.9333 -75.2919 110° East 415 478 10,900 -960 Descending New York Center
06:07PM 40.8950 -75.1522 110° East 382 440 9,900 -1,260 Descending New York Center
06:08PM 40.8614 -75.0431 112° Southeast 341 392 8,400 -1,440 Descending New York Center
06:09PM 40.8383 -74.9319 105° East 314 361 7,000 -780 Descending New York Center
06:10PM 40.8022 -74.8336 116° Southeast 304 350 6,900 -480 Descending New York Center
06:11PM 40.7633 -74.7519 122° Southeast 299 344 6,100 -480 Descending New York Center
06:12PM 40.7561 -74.6503 95° East 269 310 6,000 -60 Descending New York Center
06:13PM 40.8125 -74.5847 41° Northeast 247 284 6,000 -120 Level New York Center
06:14PM 40.8756 -74.5006 45° Northeast 269 310 5,800 -540 Descending New York Center
06:15PM 40.9136 -74.4175 59° Northeast 290 334 5,000 -420 Descending New York Center
06:16PM 40.9500 -74.3167 64° Northeast 261 300 5,000 -480 Level New York TRACON
06:17PM 40.9667 -74.2333 75° East 231 266 4,100 -540 Descending New York TRACON
06:18PM 40.9833 -74.1500 75° East 219 252 4,000 -120 Descending New York TRACON
06:19PM 40.9500 -74.0833 123° Southeast 199 229 3,900 -360 Descending New York TRACON
06:20PM 40.9167 -74.0667 159° South 175 201 3,300 -480 Descending New York TRACON
06:21PM 40.8667 -74.0500 166° South 167 192 3,000 -240 Descending New York TRACON
06:22PM 40.8333 -74.0833 217° Southwest 167 192 2,900 -540 Descending New York TRACON
06:23PM 40.7833 -74.1000 194° South 160 184 2,000 -900 Descending New York TRACON